sensor_id;sensor_type;location;lat;lon;timestamp;P1;durP1;ratioP1;P2;durP2;ratioP2
68432;SDS011;55412;51.350;17.056;2022-08-25T00:01:48;19.10;;;11.87;;
68432;SDS011;55412;51.350;17.056;2022-08-25T00:04:26;19.63;;;12.82;;
68432;SDS011;55412;51.350;17.056;2022-08-25T00:06:53;19.50;;;13.77;;
68432;SDS011;55412;51.350;17.056;2022-08-25T00:09:21;28.48;;;12.85;;
68432;SDS011;55412;51.350;17.056;2022-08-25T00:11:50;17.27;;;12.35;;
68432;SDS011;55412;51.350;17.056;2022-08-25T00:14:18;17.40;;;11.53;;
68432;SDS011;55412;51.350;17.056;2022-08-25T00:16:53;18.65;;;11.60;;
68432;SDS011;55412;51.350;17.056;2022-08-25T00:19:21;22.45;;;12.60;;
68432;SDS011;55412;51.350;17.056;2022-08-25T00:21:51;22.33;;;13.00;;
68432;SDS011;55412;51.350;17.056;2022-08-25T00:24:18;21.17;;;13.82;;
68432;SDS011;55412;51.350;17.056;2022-08-25T00:26:46;23.70;;;13.53;;
68432;SDS011;55412;51.350;17.056;2022-08-25T00:29:15;24.00;;;14.45;;
68432;SDS011;55412;51.350;17.056;2022-08-25T00:31:42;23.25;;;13.82;;
68432;SDS011;55412;51.350;17.056;2022-08-25T00:34:11;23.08;;;13.77;;
68432;SDS011;55412;51.350;17.056;2022-08-25T00:36:41;19.38;;;14.10;;
68432;SDS011;55412;51.350;17.056;2022-08-25T00:39:09;22.03;;;13.50;;
68432;SDS011;55412;51.350;17.056;2022-08-25T00:41:37;21.88;;;13.52;;
68432;SDS011;55412;51.350;17.056;2022-08-25T00:44:06;19.35;;;13.68;;
68432;SDS011;55412;51.350;17.056;2022-08-25T00:46:41;25.13;;;13.32;;
68432;SDS011;55412;51.350;17.056;2022-08-25T00:49:21;21.60;;;12.95;;
68432;SDS011;55412;51.350;17.056;2022-08-25T00:52:06;20.43;;;13.50;;
68432;SDS011;55412;51.350;17.056;2022-08-25T00:54:41;24.35;;;12.50;;
68432;SDS011;55412;51.350;17.056;2022-08-25T00:57:14;24.27;;;14.48;;
68432;SDS011;55412;51.350;17.056;2022-08-25T00:59:44;22.70;;;15.77;;
68432;SDS011;55412;51.350;17.056;2022-08-25T01:02:10;25.48;;;15.57;;
68432;SDS011;55412;51.350;17.056;2022-08-25T01:04:39;27.00;;;14.40;;
68432;SDS011;55412;51.350;17.056;2022-08-25T01:07:07;24.67;;;13.38;;
68432;SDS011;55412;51.350;17.056;2022-08-25T01:09:34;19.33;;;13.43;;
68432;SDS011;55412;51.350;17.056;2022-08-25T01:12:02;27.23;;;14.20;;
68432;SDS011;55412;51.350;17.056;2022-08-25T01:14:29;21.63;;;12.18;;
68432;SDS011;55412;51.350;17.056;2022-08-25T01:16:57;19.10;;;11.73;;
68432;SDS011;55412;51.350;17.056;2022-08-25T01:19:24;26.95;;;12.93;;
68432;SDS011;55412;51.350;17.056;2022-08-25T01:21:52;21.75;;;11.80;;
68432;SDS011;55412;51.350;17.056;2022-08-25T01:27:19;22.33;;;12.07;;
68432;SDS011;55412;51.350;17.056;2022-08-25T01:29:45;20.87;;;10.13;;
68432;SDS011;55412;51.350;17.056;2022-08-25T01:32:11;19.80;;;11.30;;
68432;SDS011;55412;51.350;17.056;2022-08-25T01:34:39;21.70;;;12.48;;
68432;SDS011;55412;51.350;17.056;2022-08-25T01:37:09;23.60;;;12.07;;
68432;SDS011;55412;51.350;17.056;2022-08-25T01:39:38;24.85;;;14.10;;
68432;SDS011;55412;51.350;17.056;2022-08-25T01:42:12;23.70;;;12.60;;
68432;SDS011;55412;51.350;17.056;2022-08-25T01:45:10;25.00;;;13.80;;
68432;SDS011;55412;51.350;17.056;2022-08-25T01:47:36;29.02;;;14.05;;
68432;SDS011;55412;51.350;17.056;2022-08-25T01:50:04;19.17;;;12.88;;
68432;SDS011;55412;51.350;17.056;2022-08-25T01:52:33;23.75;;;13.50;;
68432;SDS011;55412;51.350;17.056;2022-08-25T01:55:15;23.13;;;13.50;;
68432;SDS011;55412;51.350;17.056;2022-08-25T01:57:41;23.88;;;14.27;;
68432;SDS011;55412;51.350;17.056;2022-08-25T02:00:08;23.35;;;13.10;;
68432;SDS011;55412;51.350;17.056;2022-08-25T02:02:38;21.42;;;13.23;;
68432;SDS011;55412;51.350;17.056;2022-08-25T02:05:05;20.85;;;14.10;;
68432;SDS011;55412;51.350;17.056;2022-08-25T02:07:31;23.40;;;12.77;;
68432;SDS011;55412;51.350;17.056;2022-08-25T02:09:57;24.88;;;12.02;;
68432;SDS011;55412;51.350;17.056;2022-08-25T02:12:23;20.65;;;12.30;;
68432;SDS011;55412;51.350;17.056;2022-08-25T02:14:49;25.88;;;14.48;;
68432;SDS011;55412;51.350;17.056;2022-08-25T02:17:16;26.95;;;15.27;;
68432;SDS011;55412;51.350;17.056;2022-08-25T02:19:42;21.67;;;13.63;;
68432;SDS011;55412;51.350;17.056;2022-08-25T02:22:08;23.63;;;14.65;;
68432;SDS011;55412;51.350;17.056;2022-08-25T02:24:34;24.80;;;14.45;;
68432;SDS011;55412;51.350;17.056;2022-08-25T02:27:00;21.80;;;13.52;;
68432;SDS011;55412;51.350;17.056;2022-08-25T02:29:28;23.13;;;13.38;;
68432;SDS011;55412;51.350;17.056;2022-08-25T02:31:54;25.77;;;14.13;;
68432;SDS011;55412;51.350;17.056;2022-08-25T02:34:20;21.60;;;13.30;;
68432;SDS011;55412;51.350;17.056;2022-08-25T02:36:47;22.52;;;13.40;;
68432;SDS011;55412;51.350;17.056;2022-08-25T02:39:14;28.88;;;13.98;;
68432;SDS011;55412;51.350;17.056;2022-08-25T02:41:40;23.17;;;13.90;;
68432;SDS011;55412;51.350;17.056;2022-08-25T02:44:07;24.00;;;13.83;;
68432;SDS011;55412;51.350;17.056;2022-08-25T02:46:33;23.95;;;12.68;;
68432;SDS011;55412;51.350;17.056;2022-08-25T02:49:01;23.27;;;13.63;;
68432;SDS011;55412;51.350;17.056;2022-08-25T02:51:28;25.67;;;13.77;;
68432;SDS011;55412;51.350;17.056;2022-08-25T02:54:00;25.23;;;12.15;;
68432;SDS011;55412;51.350;17.056;2022-08-25T02:56:29;18.43;;;12.17;;
68432;SDS011;55412;51.350;17.056;2022-08-25T02:58:56;22.05;;;11.95;;
68432;SDS011;55412;51.350;17.056;2022-08-25T03:01:23;23.20;;;13.20;;
68432;SDS011;55412;51.350;17.056;2022-08-25T03:03:50;20.35;;;12.77;;
68432;SDS011;55412;51.350;17.056;2022-08-25T03:06:18;27.88;;;13.48;;
68432;SDS011;55412;51.350;17.056;2022-08-25T03:08:48;23.97;;;12.07;;
68432;SDS011;55412;51.350;17.056;2022-08-25T03:11:15;147.63;;;15.32;;
68432;SDS011;55412;51.350;17.056;2022-08-25T03:13:42;72.35;;;14.65;;
68432;SDS011;55412;51.350;17.056;2022-08-25T03:16:08;31.20;;;14.82;;
68432;SDS011;55412;51.350;17.056;2022-08-25T03:18:35;21.90;;;12.45;;
68432;SDS011;55412;51.350;17.056;2022-08-25T03:21:02;140.17;;;15.63;;
68432;SDS011;55412;51.350;17.056;2022-08-25T03:23:28;124.40;;;16.70;;
68432;SDS011;55412;51.350;17.056;2022-08-25T03:25:54;33.00;;;14.95;;
68432;SDS011;55412;51.350;17.056;2022-08-25T03:28:39;34.72;;;14.93;;
68432;SDS011;55412;51.350;17.056;2022-08-25T03:31:06;110.68;;;15.25;;
68432;SDS011;55412;51.350;17.056;2022-08-25T03:33:33;126.67;;;14.87;;
68432;SDS011;55412;51.350;17.056;2022-08-25T03:36:01;85.15;;;13.10;;
68432;SDS011;55412;51.350;17.056;2022-08-25T03:38:27;140.20;;;15.63;;
68432;SDS011;55412;51.350;17.056;2022-08-25T03:40:53;216.20;;;19.23;;
68432;SDS011;55412;51.350;17.056;2022-08-25T03:43:19;232.68;;;18.02;;
68432;SDS011;55412;51.350;17.056;2022-08-25T03:45:46;180.47;;;17.20;;
68432;SDS011;55412;51.350;17.056;2022-08-25T03:48:13;175.43;;;18.33;;
68432;SDS011;55412;51.350;17.056;2022-08-25T03:50:47;221.13;;;18.52;;
68432;SDS011;55412;51.350;17.056;2022-08-25T03:53:18;261.83;;;18.90;;
68432;SDS011;55412;51.350;17.056;2022-08-25T03:55:44;75.45;;;16.10;;
68432;SDS011;55412;51.350;17.056;2022-08-25T03:58:11;106.03;;;14.10;;
68432;SDS011;55412;51.350;17.056;2022-08-25T04:00:37;168.20;;;15.00;;
68432;SDS011;55412;51.350;17.056;2022-08-25T04:03:04;143.05;;;15.32;;
68432;SDS011;55412;51.350;17.056;2022-08-25T04:05:30;94.90;;;14.73;;
68432;SDS011;55412;51.350;17.056;2022-08-25T04:07:56;28.33;;;13.13;;
68432;SDS011;55412;51.350;17.056;2022-08-25T04:10:22;90.70;;;15.33;;
68432;SDS011;55412;51.350;17.056;2022-08-25T04:12:48;33.97;;;14.23;;
68432;SDS011;55412;51.350;17.056;2022-08-25T04:15:14;69.35;;;15.13;;
68432;SDS011;55412;51.350;17.056;2022-08-25T04:17:41;58.33;;;16.50;;
68432;SDS011;55412;51.350;17.056;2022-08-25T04:20:08;169.93;;;16.20;;
68432;SDS011;55412;51.350;17.056;2022-08-25T04:22:36;102.60;;;16.43;;
68432;SDS011;55412;51.350;17.056;2022-08-25T04:25:03;120.82;;;17.02;;
68432;SDS011;55412;51.350;17.056;2022-08-25T04:27:31;169.55;;;16.67;;
68432;SDS011;55412;51.350;17.056;2022-08-25T04:29:57;103.57;;;15.23;;
68432;SDS011;55412;51.350;17.056;2022-08-25T04:32:23;57.78;;;14.75;;
68432;SDS011;55412;51.350;17.056;2022-08-25T04:34:50;104.10;;;16.10;;
68432;SDS011;55412;51.350;17.056;2022-08-25T04:37:16;125.28;;;16.27;;
68432;SDS011;55412;51.350;17.056;2022-08-25T04:39:42;110.43;;;15.77;;
68432;SDS011;55412;51.350;17.056;2022-08-25T04:42:08;85.00;;;14.63;;
68432;SDS011;55412;51.350;17.056;2022-08-25T04:44:35;109.80;;;15.57;;
68432;SDS011;55412;51.350;17.056;2022-08-25T04:47:02;97.67;;;13.97;;
68432;SDS011;55412;51.350;17.056;2022-08-25T04:49:28;152.20;;;15.30;;
68432;SDS011;55412;51.350;17.056;2022-08-25T04:51:54;77.93;;;13.85;;
68432;SDS011;55412;51.350;17.056;2022-08-25T04:54:21;42.92;;;12.85;;
68432;SDS011;55412;51.350;17.056;2022-08-25T04:56:48;72.60;;;13.70;;
68432;SDS011;55412;51.350;17.056;2022-08-25T04:59:16;81.93;;;13.23;;
68432;SDS011;55412;51.350;17.056;2022-08-25T05:01:43;82.63;;;13.20;;
68432;SDS011;55412;51.350;17.056;2022-08-25T05:04:11;58.97;;;12.82;;
68432;SDS011;55412;51.350;17.056;2022-08-25T05:06:40;129.75;;;11.95;;
68432;SDS011;55412;51.350;17.056;2022-08-25T05:09:07;96.47;;;10.13;;
68432;SDS011;55412;51.350;17.056;2022-08-25T05:11:34;35.13;;;7.83;;
68432;SDS011;55412;51.350;17.056;2022-08-25T05:14:00;145.98;;;11.30;;
68432;SDS011;55412;51.350;17.056;2022-08-25T05:16:27;46.80;;;9.63;;
68432;SDS011;55412;51.350;17.056;2022-08-25T05:18:54;57.55;;;9.57;;
68432;SDS011;55412;51.350;17.056;2022-08-25T05:21:22;61.22;;;9.52;;
68432;SDS011;55412;51.350;17.056;2022-08-25T05:23:55;112.17;;;9.33;;
68432;SDS011;55412;51.350;17.056;2022-08-25T05:26:24;93.15;;;10.05;;
68432;SDS011;55412;51.350;17.056;2022-08-25T05:28:54;74.22;;;9.77;;
68432;SDS011;55412;51.350;17.056;2022-08-25T05:31:21;42.92;;;8.38;;
68432;SDS011;55412;51.350;17.056;2022-08-25T05:33:48;51.50;;;8.23;;
68432;SDS011;55412;51.350;17.056;2022-08-25T05:36:17;62.67;;;9.43;;
68432;SDS011;55412;51.350;17.056;2022-08-25T05:38:45;66.40;;;9.02;;
68432;SDS011;55412;51.350;17.056;2022-08-25T05:41:14;45.78;;;8.63;;
68432;SDS011;55412;51.350;17.056;2022-08-25T05:43:43;71.00;;;9.32;;
68432;SDS011;55412;51.350;17.056;2022-08-25T05:46:13;50.97;;;10.60;;
68432;SDS011;55412;51.350;17.056;2022-08-25T05:48:40;58.23;;;10.60;;
68432;SDS011;55412;51.350;17.056;2022-08-25T05:51:07;44.97;;;9.90;;
68432;SDS011;55412;51.350;17.056;2022-08-25T05:53:35;42.35;;;10.75;;
68432;SDS011;55412;51.350;17.056;2022-08-25T05:56:03;71.60;;;10.68;;
68432;SDS011;55412;51.350;17.056;2022-08-25T05:58:30;81.93;;;11.30;;
68432;SDS011;55412;51.350;17.056;2022-08-25T06:00:57;88.10;;;10.20;;
68432;SDS011;55412;51.350;17.056;2022-08-25T06:03:44;30.00;;;7.85;;
68432;SDS011;55412;51.350;17.056;2022-08-25T06:06:11;28.23;;;9.55;;
68432;SDS011;55412;51.350;17.056;2022-08-25T06:08:39;128.30;;;10.13;;
68432;SDS011;55412;51.350;17.056;2022-08-25T06:11:07;39.67;;;9.52;;
68432;SDS011;55412;51.350;17.056;2022-08-25T06:13:33;34.23;;;8.53;;
68432;SDS011;55412;51.350;17.056;2022-08-25T06:15:59;48.60;;;9.88;;
68432;SDS011;55412;51.350;17.056;2022-08-25T06:18:25;54.35;;;10.60;;
68432;SDS011;55412;51.350;17.056;2022-08-25T06:20:51;47.78;;;9.80;;
68432;SDS011;55412;51.350;17.056;2022-08-25T06:23:18;16.63;;;8.63;;
68432;SDS011;55412;51.350;17.056;2022-08-25T06:25:48;40.37;;;8.80;;
68432;SDS011;55412;51.350;17.056;2022-08-25T06:28:16;65.25;;;10.38;;
68432;SDS011;55412;51.350;17.056;2022-08-25T06:30:43;45.30;;;9.50;;
68432;SDS011;55412;51.350;17.056;2022-08-25T06:33:10;45.55;;;8.73;;
68432;SDS011;55412;51.350;17.056;2022-08-25T06:35:39;26.50;;;6.78;;
68432;SDS011;55412;51.350;17.056;2022-08-25T06:38:09;76.30;;;10.50;;
68432;SDS011;55412;51.350;17.056;2022-08-25T06:40:35;81.78;;;10.25;;
68432;SDS011;55412;51.350;17.056;2022-08-25T06:43:02;47.58;;;9.43;;
68432;SDS011;55412;51.350;17.056;2022-08-25T06:45:33;19.50;;;9.50;;
68432;SDS011;55412;51.350;17.056;2022-08-25T06:47:59;33.60;;;10.65;;
68432;SDS011;55412;51.350;17.056;2022-08-25T06:50:26;22.07;;;9.37;;
68432;SDS011;55412;51.350;17.056;2022-08-25T06:52:53;19.60;;;10.02;;
68432;SDS011;55412;51.350;17.056;2022-08-25T06:55:19;23.38;;;9.75;;
68432;SDS011;55412;51.350;17.056;2022-08-25T06:57:45;14.05;;;9.93;;
68432;SDS011;55412;51.350;17.056;2022-08-25T07:00:11;18.95;;;9.70;;
68432;SDS011;55412;51.350;17.056;2022-08-25T07:02:38;20.53;;;9.77;;
68432;SDS011;55412;51.350;17.056;2022-08-25T07:05:04;17.08;;;10.35;;
68432;SDS011;55412;51.350;17.056;2022-08-25T07:07:31;22.05;;;11.25;;
68432;SDS011;55412;51.350;17.056;2022-08-25T07:09:57;23.77;;;11.20;;
68432;SDS011;55412;51.350;17.056;2022-08-25T07:12:23;16.85;;;10.98;;
68432;SDS011;55412;51.350;17.056;2022-08-25T07:14:49;32.53;;;10.93;;
68432;SDS011;55412;51.350;17.056;2022-08-25T07:17:15;57.10;;;11.98;;
68432;SDS011;55412;51.350;17.056;2022-08-25T07:19:41;46.17;;;12.30;;
68432;SDS011;55412;51.350;17.056;2022-08-25T07:22:08;63.38;;;11.75;;
68432;SDS011;55412;51.350;17.056;2022-08-25T07:24:34;18.58;;;10.00;;
68432;SDS011;55412;51.350;17.056;2022-08-25T07:27:00;19.80;;;11.43;;
68432;SDS011;55412;51.350;17.056;2022-08-25T07:29:26;15.23;;;9.43;;
68432;SDS011;55412;51.350;17.056;2022-08-25T07:31:54;16.80;;;10.65;;
68432;SDS011;55412;51.350;17.056;2022-08-25T07:34:20;45.53;;;12.45;;
68432;SDS011;55412;51.350;17.056;2022-08-25T07:37:05;24.80;;;12.70;;
68432;SDS011;55412;51.350;17.056;2022-08-25T07:39:31;37.27;;;12.93;;
68432;SDS011;55412;51.350;17.056;2022-08-25T07:41:57;46.45;;;13.02;;
68432;SDS011;55412;51.350;17.056;2022-08-25T07:44:24;26.83;;;11.98;;
68432;SDS011;55412;51.350;17.056;2022-08-25T07:46:52;50.47;;;13.73;;
68432;SDS011;55412;51.350;17.056;2022-08-25T07:49:18;50.20;;;13.57;;
68432;SDS011;55412;51.350;17.056;2022-08-25T07:51:47;52.87;;;14.17;;
68432;SDS011;55412;51.350;17.056;2022-08-25T07:54:13;22.95;;;14.55;;
68432;SDS011;55412;51.350;17.056;2022-08-25T07:56:39;35.88;;;13.93;;
68432;SDS011;55412;51.350;17.056;2022-08-25T07:59:07;28.95;;;14.00;;
68432;SDS011;55412;51.350;17.056;2022-08-25T08:01:34;23.10;;;14.30;;
68432;SDS011;55412;51.350;17.056;2022-08-25T08:04:00;23.87;;;14.27;;
68432;SDS011;55412;51.350;17.056;2022-08-25T08:06:27;29.92;;;15.25;;
68432;SDS011;55412;51.350;17.056;2022-08-25T08:08:54;30.75;;;16.13;;
68432;SDS011;55412;51.350;17.056;2022-08-25T08:11:23;26.98;;;14.38;;
68432;SDS011;55412;51.350;17.056;2022-08-25T08:14:01;25.42;;;14.65;;
68432;SDS011;55412;51.350;17.056;2022-08-25T08:16:28;23.57;;;12.90;;
68432;SDS011;55412;51.350;17.056;2022-08-25T08:18:56;25.05;;;15.82;;
68432;SDS011;55412;51.350;17.056;2022-08-25T08:21:27;24.42;;;15.23;;
68432;SDS011;55412;51.350;17.056;2022-08-25T08:23:57;23.20;;;14.15;;
68432;SDS011;55412;51.350;17.056;2022-08-25T08:26:25;26.27;;;14.73;;
68432;SDS011;55412;51.350;17.056;2022-08-25T08:28:52;25.13;;;15.03;;
68432;SDS011;55412;51.350;17.056;2022-08-25T08:31:20;25.63;;;14.50;;
68432;SDS011;55412;51.350;17.056;2022-08-25T08:33:48;21.90;;;13.75;;
68432;SDS011;55412;51.350;17.056;2022-08-25T08:36:15;23.08;;;14.07;;
68432;SDS011;55412;51.350;17.056;2022-08-25T08:38:42;20.20;;;14.15;;
68432;SDS011;55412;51.350;17.056;2022-08-25T08:44:34;22.10;;;12.95;;
68432;SDS011;55412;51.350;17.056;2022-08-25T08:56:35;18.13;;;12.33;;
68432;SDS011;55412;51.350;17.056;2022-08-25T08:58:45;22.42;;;12.48;;
68432;SDS011;55412;51.350;17.056;2022-08-25T09:01:18;17.88;;;11.13;;
68432;SDS011;55412;51.350;17.056;2022-08-25T09:04:17;17.58;;;9.73;;
68432;SDS011;55412;51.350;17.056;2022-08-25T09:06:51;17.88;;;10.60;;
68432;SDS011;55412;51.350;17.056;2022-08-25T09:09:19;11.60;;;8.60;;
68432;SDS011;55412;51.350;17.056;2022-08-25T09:12:10;20.75;;;10.00;;
68432;SDS011;55412;51.350;17.056;2022-08-25T09:18:36;19.10;;;9.10;;
68432;SDS011;55412;51.350;17.056;2022-08-25T09:21:48;15.95;;;9.10;;
68432;SDS011;55412;51.350;17.056;2022-08-25T09:24:39;17.27;;;8.23;;
68432;SDS011;55412;51.350;17.056;2022-08-25T09:27:35;15.43;;;8.35;;
68432;SDS011;55412;51.350;17.056;2022-08-25T09:30:26;17.55;;;7.47;;
68432;SDS011;55412;51.350;17.056;2022-08-25T09:33:24;16.58;;;8.20;;
68432;SDS011;55412;51.350;17.056;2022-08-25T09:35:54;16.63;;;8.55;;
68432;SDS011;55412;51.350;17.056;2022-08-25T09:38:21;12.40;;;6.90;;
68432;SDS011;55412;51.350;17.056;2022-08-25T09:40:49;14.88;;;7.03;;
68432;SDS011;55412;51.350;17.056;2022-08-25T09:43:28;18.48;;;7.88;;
68432;SDS011;55412;51.350;17.056;2022-08-25T09:46:11;17.52;;;7.75;;
68432;SDS011;55412;51.350;17.056;2022-08-25T09:48:49;15.23;;;8.68;;
68432;SDS011;55412;51.350;17.056;2022-08-25T09:51:30;18.13;;;8.70;;
68432;SDS011;55412;51.350;17.056;2022-08-25T09:54:03;17.42;;;7.72;;
68432;SDS011;55412;51.350;17.056;2022-08-25T09:56:49;14.93;;;7.00;;
68432;SDS011;55412;51.350;17.056;2022-08-25T10:01:59;16.55;;;8.60;;
68432;SDS011;55412;51.350;17.056;2022-08-25T10:04:30;11.87;;;5.03;;
68432;SDS011;55412;51.350;17.056;2022-08-25T10:07:05;12.50;;;5.10;;
68432;SDS011;55412;51.350;17.056;2022-08-25T10:09:58;11.48;;;5.88;;
68432;SDS011;55412;51.350;17.056;2022-08-25T10:15:21;15.57;;;5.70;;
68432;SDS011;55412;51.350;17.056;2022-08-25T10:17:50;13.60;;;3.20;;
68432;SDS011;55412;51.350;17.056;2022-08-25T10:22:51;12.52;;;4.50;;
68432;SDS011;55412;51.350;17.056;2022-08-25T10:25:34;14.40;;;4.55;;
68432;SDS011;55412;51.350;17.056;2022-08-25T10:28:27;13.45;;;4.15;;
68432;SDS011;55412;51.350;17.056;2022-08-25T10:31:09;13.67;;;4.80;;
68432;SDS011;55412;51.350;17.056;2022-08-25T10:39:42;21.70;;;5.22;;
68432;SDS011;55412;51.350;17.056;2022-08-25T10:42:35;14.70;;;4.00;;
68432;SDS011;55412;51.350;17.056;2022-08-25T10:48:18;21.30;;;4.63;;
68432;SDS011;55412;51.350;17.056;2022-08-25T10:56:53;19.42;;;4.40;;
68432;SDS011;55412;51.350;17.056;2022-08-25T11:00:36;19.17;;;3.97;;
68432;SDS011;55412;51.350;17.056;2022-08-25T11:05:51;20.85;;;5.70;;
68432;SDS011;55412;51.350;17.056;2022-08-25T11:08:36;12.75;;;4.00;;
68432;SDS011;55412;51.350;17.056;2022-08-25T11:11:23;16.40;;;3.97;;
68432;SDS011;55412;51.350;17.056;2022-08-25T11:14:11;11.40;;;4.17;;
68432;SDS011;55412;51.350;17.056;2022-08-25T11:19:42;8.65;;;4.53;;
68432;SDS011;55412;51.350;17.056;2022-08-25T11:25:53;15.55;;;4.53;;
68432;SDS011;55412;51.350;17.056;2022-08-25T11:30:55;16.33;;;4.70;;
68432;SDS011;55412;51.350;17.056;2022-08-25T11:33:24;9.13;;;4.30;;
68432;SDS011;55412;51.350;17.056;2022-08-25T11:36:14;10.00;;;4.93;;
68432;SDS011;55412;51.350;17.056;2022-08-25T11:39:11;14.80;;;4.38;;
68432;SDS011;55412;51.350;17.056;2022-08-25T11:52:59;26.05;;;5.15;;
68432;SDS011;55412;51.350;17.056;2022-08-25T11:55:50;17.57;;;4.00;;
68432;SDS011;55412;51.350;17.056;2022-08-25T12:02:00;12.60;;;3.78;;
68432;SDS011;55412;51.350;17.056;2022-08-25T12:04:49;9.93;;;3.90;;
68432;SDS011;55412;51.350;17.056;2022-08-25T12:12:31;19.67;;;3.47;;
68432;SDS011;55412;51.350;17.056;2022-08-25T12:29:02;11.68;;;3.95;;
68432;SDS011;55412;51.350;17.056;2022-08-25T12:38:10;15.70;;;4.03;;
68432;SDS011;55412;51.350;17.056;2022-08-25T12:41:12;25.80;;;3.95;;
68432;SDS011;55412;51.350;17.056;2022-08-25T12:43:46;13.18;;;3.97;;
68432;SDS011;55412;51.350;17.056;2022-08-25T12:49:03;20.90;;;5.00;;
68432;SDS011;55412;51.350;17.056;2022-08-25T12:54:19;17.70;;;4.13;;
68432;SDS011;55412;51.350;17.056;2022-08-25T12:57:22;14.15;;;3.90;;
68432;SDS011;55412;51.350;17.056;2022-08-25T13:14:56;16.60;;;3.47;;
68432;SDS011;55412;51.350;17.056;2022-08-25T13:17:28;25.15;;;4.00;;
68432;SDS011;55412;51.350;17.056;2022-08-25T13:20:12;13.67;;;3.43;;
68432;SDS011;55412;51.350;17.056;2022-08-25T13:22:55;17.85;;;4.45;;
68432;SDS011;55412;51.350;17.056;2022-08-25T13:25:26;18.27;;;3.30;;
68432;SDS011;55412;51.350;17.056;2022-08-25T13:27:56;17.40;;;4.22;;
68432;SDS011;55412;51.350;17.056;2022-08-25T13:30:29;17.00;;;4.72;;
68432;SDS011;55412;51.350;17.056;2022-08-25T13:33:14;24.20;;;5.13;;
68432;SDS011;55412;51.350;17.056;2022-08-25T13:35:50;18.73;;;5.28;;
68432;SDS011;55412;51.350;17.056;2022-08-25T13:38:40;25.20;;;4.75;;
68432;SDS011;55412;51.350;17.056;2022-08-25T13:41:09;17.50;;;4.53;;
68432;SDS011;55412;51.350;17.056;2022-08-25T13:43:36;16.08;;;3.72;;
68432;SDS011;55412;51.350;17.056;2022-08-25T13:46:03;20.00;;;3.70;;
68432;SDS011;55412;51.350;17.056;2022-08-25T13:48:34;23.73;;;4.88;;
68432;SDS011;55412;51.350;17.056;2022-08-25T13:51:15;16.17;;;4.00;;
68432;SDS011;55412;51.350;17.056;2022-08-25T13:53:51;8.70;;;4.30;;
68432;SDS011;55412;51.350;17.056;2022-08-25T13:56:24;11.10;;;4.75;;
68432;SDS011;55412;51.350;17.056;2022-08-25T13:59:29;19.67;;;4.97;;
68432;SDS011;55412;51.350;17.056;2022-08-25T14:02:02;23.15;;;4.57;;
68432;SDS011;55412;51.350;17.056;2022-08-25T14:04:31;18.23;;;4.68;;
68432;SDS011;55412;51.350;17.056;2022-08-25T14:07:14;14.43;;;3.35;;
68432;SDS011;55412;51.350;17.056;2022-08-25T14:09:48;16.98;;;4.80;;
68432;SDS011;55412;51.350;17.056;2022-08-25T14:12:40;12.47;;;3.87;;
68432;SDS011;55412;51.350;17.056;2022-08-25T14:17:48;12.57;;;3.28;;
68432;SDS011;55412;51.350;17.056;2022-08-25T14:20:31;17.45;;;4.50;;
68432;SDS011;55412;51.350;17.056;2022-08-25T14:23:08;24.45;;;4.10;;
68432;SDS011;55412;51.350;17.056;2022-08-25T14:25:43;21.23;;;4.63;;
68432;SDS011;55412;51.350;17.056;2022-08-25T14:28:11;24.52;;;4.05;;
68432;SDS011;55412;51.350;17.056;2022-08-25T14:30:42;17.10;;;3.03;;
68432;SDS011;55412;51.350;17.056;2022-08-25T14:33:15;27.17;;;4.60;;
68432;SDS011;55412;51.350;17.056;2022-08-25T14:35:46;15.30;;;3.38;;
68432;SDS011;55412;51.350;17.056;2022-08-25T14:38:16;14.80;;;3.03;;
68432;SDS011;55412;51.350;17.056;2022-08-25T14:40:43;18.27;;;4.63;;
68432;SDS011;55412;51.350;17.056;2022-08-25T14:43:10;13.13;;;3.05;;
68432;SDS011;55412;51.350;17.056;2022-08-25T14:45:39;13.50;;;3.35;;
68432;SDS011;55412;51.350;17.056;2022-08-25T14:48:09;16.10;;;3.80;;
68432;SDS011;55412;51.350;17.056;2022-08-25T14:50:53;18.20;;;3.57;;
68432;SDS011;55412;51.350;17.056;2022-08-25T14:53:23;12.65;;;3.08;;
68432;SDS011;55412;51.350;17.056;2022-08-25T14:55:49;23.85;;;4.00;;
68432;SDS011;55412;51.350;17.056;2022-08-25T14:58:21;25.13;;;4.10;;
68432;SDS011;55412;51.350;17.056;2022-08-25T15:00:48;25.90;;;4.38;;
68432;SDS011;55412;51.350;17.056;2022-08-25T15:03:59;24.90;;;4.40;;
68432;SDS011;55412;51.350;17.056;2022-08-25T15:06:08;25.77;;;5.15;;
68432;SDS011;55412;51.350;17.056;2022-08-25T15:08:37;26.23;;;4.43;;
68432;SDS011;55412;51.350;17.056;2022-08-25T15:11:23;25.63;;;4.63;;
68432;SDS011;55412;51.350;17.056;2022-08-25T15:13:50;25.20;;;4.45;;
68432;SDS011;55412;51.350;17.056;2022-08-25T15:16:36;26.50;;;5.00;;
68432;SDS011;55412;51.350;17.056;2022-08-25T15:19:07;20.40;;;4.32;;
68432;SDS011;55412;51.350;17.056;2022-08-25T15:21:38;24.40;;;4.10;;
68432;SDS011;55412;51.350;17.056;2022-08-25T15:24:05;26.85;;;4.88;;
68432;SDS011;55412;51.350;17.056;2022-08-25T15:26:42;11.88;;;3.53;;
68432;SDS011;55412;51.350;17.056;2022-08-25T15:29:19;20.90;;;4.03;;
68432;SDS011;55412;51.350;17.056;2022-08-25T15:31:47;18.10;;;3.63;;
68432;SDS011;55412;51.350;17.056;2022-08-25T15:34:14;14.73;;;3.60;;
68432;SDS011;55412;51.350;17.056;2022-08-25T15:36:40;15.77;;;4.10;;
68432;SDS011;55412;51.350;17.056;2022-08-25T15:39:07;15.40;;;3.30;;
68432;SDS011;55412;51.350;17.056;2022-08-25T15:41:34;14.30;;;4.07;;
68432;SDS011;55412;51.350;17.056;2022-08-25T15:44:02;174.57;;;71.72;;
68432;SDS011;55412;51.350;17.056;2022-08-25T15:46:31;71.55;;;24.67;;
68432;SDS011;55412;51.350;17.056;2022-08-25T15:48:59;22.20;;;6.88;;
68432;SDS011;55412;51.350;17.056;2022-08-25T15:51:28;23.00;;;6.28;;
68432;SDS011;55412;51.350;17.056;2022-08-25T15:53:55;20.33;;;6.70;;
68432;SDS011;55412;51.350;17.056;2022-08-25T15:56:21;26.27;;;5.68;;
68432;SDS011;55412;51.350;17.056;2022-08-25T15:58:48;30.75;;;9.18;;
68432;SDS011;55412;51.350;17.056;2022-08-25T16:01:16;16.08;;;4.45;;
68432;SDS011;55412;51.350;17.056;2022-08-25T16:03:52;19.80;;;5.50;;
68432;SDS011;55412;51.350;17.056;2022-08-25T16:06:18;25.67;;;7.03;;
68432;SDS011;55412;51.350;17.056;2022-08-25T16:08:44;17.42;;;5.38;;
68432;SDS011;55412;51.350;17.056;2022-08-25T16:11:16;18.42;;;5.40;;
68432;SDS011;55412;51.350;17.056;2022-08-25T16:13:46;25.42;;;6.50;;
68432;SDS011;55412;51.350;17.056;2022-08-25T16:16:16;20.20;;;6.28;;
68432;SDS011;55412;51.350;17.056;2022-08-25T16:18:44;36.20;;;10.27;;
68432;SDS011;55412;51.350;17.056;2022-08-25T16:21:12;25.65;;;8.55;;
68432;SDS011;55412;51.350;17.056;2022-08-25T16:23:43;22.75;;;6.68;;
68432;SDS011;55412;51.350;17.056;2022-08-25T16:26:10;23.90;;;6.35;;
68432;SDS011;55412;51.350;17.056;2022-08-25T16:28:37;22.20;;;6.00;;
68432;SDS011;55412;51.350;17.056;2022-08-25T16:31:07;19.07;;;5.90;;
68432;SDS011;55412;51.350;17.056;2022-08-25T16:33:36;25.75;;;6.82;;
68432;SDS011;55412;51.350;17.056;2022-08-25T16:36:03;17.98;;;6.43;;